createdAt,value
2023-04-09T00:00:32.923Z,7.62
2023-04-09T00:01:35.178Z,7.60
2023-04-09T00:02:34.496Z,7.60
2023-04-09T00:03:32.904Z,7.58
2023-04-09T00:04:33.081Z,7.57
2023-04-09T00:05:34.877Z,7.57
2023-04-09T00:06:33.652Z,7.57
2023-04-09T00:07:32.917Z,7.58
2023-04-09T00:08:34.181Z,7.62
2023-04-09T00:09:34.496Z,7.57
2023-04-09T00:10:32.780Z,7.58
2023-04-09T00:11:34.036Z,7.58
2023-04-09T00:12:33.527Z,7.57
2023-04-09T00:13:39.201Z,7.55
2023-04-09T00:14:33.908Z,7.58
2023-04-09T00:15:34.186Z,7.55
2023-04-09T00:16:34.572Z,7.51
2023-04-09T00:17:33.869Z,7.51
2023-04-09T00:18:34.061Z,7.54
2023-04-09T00:19:33.367Z,7.51
2023-04-09T00:20:32.626Z,7.51
2023-04-09T00:21:33.886Z,7.54
2023-04-09T00:22:34.532Z,7.52
2023-04-09T00:23:32.460Z,7.54
2023-04-09T00:24:32.764Z,7.52
2023-04-09T00:25:34.011Z,7.54
2023-04-09T00:26:33.348Z,7.54
2023-04-09T00:27:32.557Z,7.52
2023-04-09T00:28:32.913Z,7.52
2023-04-09T00:29:34.100Z,7.52
2023-04-09T00:30:32.427Z,7.50
2023-04-09T00:31:32.692Z,7.51
2023-04-09T00:32:33.941Z,7.51
2023-04-09T00:33:34.216Z,7.54
2023-04-09T00:34:32.511Z,7.52
2023-04-09T00:35:32.844Z,7.54
2023-04-09T00:36:34.049Z,7.54
2023-04-09T00:37:32.338Z,7.55
2023-04-09T00:38:32.649Z,7.55
2023-04-09T00:39:33.910Z,7.54
2023-04-09T00:40:32.232Z,7.52
2023-04-09T00:41:32.570Z,7.55
2023-04-09T00:42:32.792Z,7.55
2023-04-09T00:43:33.152Z,7.58
2023-04-09T00:44:32.437Z,7.57
2023-04-09T00:45:33.751Z,7.58
2023-04-09T00:46:33.057Z,7.58
2023-04-09T00:47:32.318Z,7.58
2023-04-09T00:48:32.614Z,7.57
2023-04-09T00:49:32.917Z,7.58
2023-04-09T00:50:32.184Z,7.58
2023-04-09T00:51:32.527Z,7.62
2023-04-09T00:52:32.845Z,7.63
2023-04-09T00:53:32.042Z,7.63
2023-04-09T00:54:32.375Z,7.60
2023-04-09T00:55:32.634Z,7.58
2023-04-09T00:56:33.874Z,7.60
2023-04-09T00:57:32.168Z,7.58
2023-04-09T00:58:33.483Z,7.54
2023-04-09T00:59:32.780Z,7.52
2023-04-09T01:00:32.057Z,7.51
2023-04-09T01:01:32.491Z,7.51
2023-04-09T01:02:32.727Z,7.48
2023-04-09T01:03:31.998Z,7.50
2023-04-09T01:04:32.281Z,7.50
2023-04-09T01:05:32.564Z,7.51
2023-04-09T01:06:32.864Z,7.50
2023-04-09T01:07:32.144Z,7.50
2023-04-09T01:08:32.434Z,7.48
2023-04-09T01:09:33.733Z,7.51
2023-04-09T01:10:32.045Z,7.54
2023-04-09T01:11:32.392Z,7.55
2023-04-09T01:12:32.684Z,7.60
2023-04-09T01:13:31.949Z,7.66
2023-04-09T01:14:33.210Z,7.63
2023-04-09T01:15:32.566Z,7.66
2023-04-09T01:16:31.875Z,7.67
2023-04-09T01:17:32.297Z,7.66
2023-04-09T01:18:32.479Z,7.67
2023-04-09T01:19:31.743Z,7.69
2023-04-09T01:20:32.058Z,7.71
2023-04-09T01:21:32.362Z,7.70
2023-04-09T01:22:32.724Z,7.71
2023-04-09T01:23:31.850Z,7.70
2023-04-09T01:24:33.023Z,7.67
2023-04-09T01:25:32.372Z,7.69
2023-04-09T01:26:31.574Z,7.69
2023-04-09T01:27:31.838Z,7.66
2023-04-09T01:28:32.446Z,7.67
2023-04-09T01:29:33.319Z,7.69
2023-04-09T01:30:32.653Z,7.67
2023-04-09T01:31:31.855Z,7.67
2023-04-09T01:32:32.204Z,7.62
2023-04-09T01:33:32.390Z,7.58
2023-04-09T01:34:31.838Z,7.54
2023-04-09T01:35:31.909Z,7.51
2023-04-09T01:36:32.134Z,7.51
2023-04-09T01:37:33.377Z,7.52
2023-04-09T01:38:31.664Z,7.50
2023-04-09T01:39:31.957Z,7.47
2023-04-09T01:40:33.224Z,7.44
2023-04-09T01:41:31.457Z,7.41
2023-04-09T01:42:31.656Z,7.39
2023-04-09T01:43:31.924Z,7.39
2023-04-09T01:44:32.185Z,7.37
2023-04-09T01:45:31.525Z,7.36
2023-04-09T01:46:31.726Z,7.36
2023-04-09T01:47:31.983Z,7.33
2023-04-09T01:48:32.161Z,7.32
2023-04-09T01:49:31.390Z,7.30
2023-04-09T01:50:31.694Z,7.32
2023-04-09T01:51:31.936Z,7.29
2023-04-09T01:52:32.194Z,7.30
2023-04-09T01:53:31.430Z,7.27
2023-04-09T01:54:31.688Z,7.29
2023-04-09T01:55:31.984Z,7.27
2023-04-09T01:56:31.235Z,7.26
2023-04-09T01:57:31.507Z,7.30
2023-04-09T01:58:31.779Z,7.30
2023-04-09T01:59:32.053Z,7.29
2023-04-09T02:00:31.295Z,7.30
2023-04-09T02:01:31.691Z,7.32
2023-04-09T02:02:32.002Z,7.32
2023-04-09T02:03:32.182Z,7.32
2023-04-09T02:04:31.453Z,7.32
2023-04-09T02:05:31.718Z,7.33
2023-04-09T02:06:33.856Z,7.30
2023-04-09T02:07:31.264Z,7.29
2023-04-09T02:08:31.554Z,7.27
2023-04-09T02:09:31.851Z,7.26
2023-04-09T02:10:31.073Z,7.26
2023-04-09T02:11:31.384Z,7.27
2023-04-09T02:12:31.705Z,7.26
2023-04-09T02:13:31.906Z,7.24
2023-04-09T02:14:32.127Z,7.27
2023-04-09T02:15:31.481Z,7.26
2023-04-09T02:16:31.741Z,7.23
2023-04-09T02:17:31.994Z,7.24
2023-04-09T02:18:31.370Z,7.19
2023-04-09T02:19:31.529Z,7.18
2023-04-09T02:20:32.780Z,7.19
2023-04-09T02:21:31.099Z,7.16
2023-04-09T02:22:31.360Z,7.14
2023-04-09T02:23:31.640Z,7.11
2023-04-09T02:24:30.910Z,7.15
2023-04-09T02:25:31.189Z,7.16
2023-04-09T02:26:31.414Z,7.18
2023-04-09T02:27:31.746Z,7.18
2023-04-09T02:28:30.989Z,7.16
2023-04-09T02:29:31.663Z,7.18
2023-04-09T02:30:31.564Z,7.18
2023-04-09T02:31:30.831Z,7.14
2023-04-09T02:32:31.066Z,7.14
2023-04-09T02:33:31.340Z,7.12
2023-04-09T02:34:31.609Z,7.09
2023-04-09T02:35:30.914Z,7.07
2023-04-09T02:36:31.213Z,7.08
2023-04-09T02:37:31.450Z,7.07
2023-04-09T02:38:30.707Z,7.07
2023-04-09T02:39:31.033Z,7.04
2023-04-09T02:40:31.350Z,7.00
2023-04-09T02:41:30.544Z,6.97
2023-04-09T02:42:30.885Z,6.97
2023-04-09T02:43:31.149Z,6.94
2023-04-09T02:44:31.478Z,6.94
2023-04-09T02:45:30.685Z,6.91
2023-04-09T02:46:31.004Z,6.93
2023-04-09T02:47:32.207Z,6.90
2023-04-09T02:48:30.490Z,6.82
2023-04-09T02:49:30.806Z,6.86
2023-04-09T02:50:31.133Z,6.83
2023-04-09T02:51:31.411Z,6.82
2023-04-09T02:52:30.656Z,6.81
2023-04-09T02:53:30.976Z,6.81
2023-04-09T02:54:31.276Z,6.79
2023-04-09T02:55:31.513Z,6.75
2023-04-09T02:56:31.873Z,6.81
2023-04-09T02:57:33.240Z,6.86
2023-04-09T02:58:31.426Z,6.86
2023-04-09T02:59:31.702Z,6.82
2023-04-09T03:00:31.074Z,6.82
2023-04-09T03:01:30.383Z,6.81
2023-04-09T03:02:30.734Z,6.78
2023-04-09T03:03:31.190Z,6.76
2023-04-09T03:04:31.227Z,6.75
2023-04-09T03:05:30.563Z,6.72
2023-04-09T03:06:30.819Z,6.72
2023-04-09T03:07:31.109Z,6.69
2023-04-09T03:08:30.384Z,6.65
2023-04-09T03:09:30.771Z,6.64
2023-04-09T03:10:31.959Z,6.63
2023-04-09T03:11:30.275Z,6.61
2023-04-09T03:12:30.567Z,6.61
2023-04-09T03:13:30.871Z,6.60
2023-04-09T03:14:30.177Z,6.57
2023-04-09T03:15:30.466Z,6.54
2023-04-09T03:16:30.776Z,6.53
2023-04-09T03:17:31.067Z,6.51
2023-04-09T03:18:30.284Z,6.53
2023-04-09T03:19:31.613Z,6.53
2023-04-09T03:20:30.929Z,6.55
2023-04-09T03:21:30.200Z,6.57
2023-04-09T03:22:31.443Z,6.60
2023-04-09T03:23:30.796Z,6.55
2023-04-09T03:24:30.079Z,6.55
2023-04-09T03:25:30.392Z,6.51
2023-04-09T03:26:30.692Z,6.54
2023-04-09T03:27:30.964Z,6.53
2023-04-09T03:28:30.163Z,6.53
2023-04-09T03:29:30.480Z,6.53
2023-04-09T03:30:30.790Z,6.54
2023-04-09T03:31:30.118Z,6.51
2023-04-09T03:32:30.738Z,6.53
2023-04-09T03:33:30.629Z,6.51
2023-04-09T03:34:29.880Z,6.53
2023-04-09T03:35:31.183Z,6.51
2023-04-09T03:36:31.425Z,6.51
2023-04-09T03:37:30.759Z,6.50
2023-04-09T03:38:30.067Z,6.51
2023-04-09T03:39:30.325Z,6.50
2023-04-09T03:40:30.611Z,6.51
2023-04-09T03:41:29.875Z,6.50
2023-04-09T03:42:30.186Z,6.51
2023-04-09T03:43:30.779Z,6.53
2023-04-09T03:44:29.773Z,6.54
2023-04-09T03:45:30.091Z,6.53
2023-04-09T03:46:30.437Z,6.55
2023-04-09T03:47:30.895Z,6.57
2023-04-09T03:48:29.892Z,6.55
2023-04-09T03:49:30.257Z,6.58
2023-04-09T03:50:30.514Z,6.58
2023-04-09T03:51:30.685Z,6.60
2023-04-09T03:52:30.002Z,6.61
2023-04-09T03:53:30.303Z,6.61
2023-04-09T03:54:30.635Z,6.61
2023-04-09T03:55:29.797Z,6.64
2023-04-09T03:56:30.142Z,6.63
2023-04-09T03:57:30.397Z,6.64
2023-04-09T03:58:29.652Z,6.63
2023-04-09T03:59:29.956Z,6.63
2023-04-09T04:00:30.257Z,6.64
2023-04-09T04:01:30.493Z,6.64
2023-04-09T04:02:29.851Z,6.68
2023-04-09T04:03:30.268Z,6.68
2023-04-09T04:04:31.419Z,6.69
2023-04-09T04:05:30.548Z,6.71
2023-04-09T04:06:29.930Z,6.72
2023-04-09T04:07:31.177Z,6.72
2023-04-09T04:08:30.370Z,6.72
2023-04-09T04:09:29.694Z,6.73
2023-04-09T04:10:30.953Z,6.76
2023-04-09T04:11:30.433Z,6.73
2023-04-09T04:12:29.540Z,6.72
2023-04-09T04:13:29.900Z,6.71
2023-04-09T04:14:31.084Z,6.71
2023-04-09T04:15:29.406Z,6.71
2023-04-09T04:16:29.711Z,6.71
2023-04-09T04:17:29.978Z,6.71
2023-04-09T04:18:30.236Z,6.65
2023-04-09T04:19:29.524Z,6.68
2023-04-09T04:20:29.795Z,6.68
2023-04-09T04:21:30.073Z,6.65
2023-04-09T04:22:29.340Z,6.64
2023-04-09T04:23:29.672Z,6.64
2023-04-09T04:24:29.940Z,6.64
2023-04-09T04:25:29.178Z,6.64
2023-04-09T04:26:29.510Z,6.64
2023-04-09T04:27:29.773Z,6.63
2023-04-09T04:28:30.084Z,6.63
2023-04-09T04:29:29.347Z,6.63
2023-04-09T04:30:29.604Z,6.61
2023-04-09T04:31:29.966Z,6.61
2023-04-09T04:32:29.152Z,6.61
2023-04-09T04:33:29.416Z,6.58
2023-04-09T04:34:29.735Z,6.57
2023-04-09T04:35:30.043Z,6.58
2023-04-09T04:36:29.294Z,6.58
2023-04-09T04:37:29.575Z,6.55
2023-04-09T04:38:29.891Z,6.57
2023-04-09T04:39:29.129Z,6.53
2023-04-09T04:40:29.424Z,6.51
2023-04-09T04:41:29.743Z,6.51
2023-04-09T04:42:29.014Z,6.50
2023-04-09T04:43:29.300Z,6.50
2023-04-09T04:44:29.628Z,6.50
2023-04-09T04:45:29.959Z,6.46
2023-04-09T04:46:29.129Z,6.45
2023-04-09T04:47:29.537Z,6.42
2023-04-09T04:48:29.705Z,6.42
2023-04-09T04:49:28.959Z,6.40
2023-04-09T04:50:29.286Z,6.32
2023-04-09T04:51:29.557Z,6.35
2023-04-09T04:52:28.810Z,6.36
2023-04-09T04:53:29.133Z,6.38
2023-04-09T04:54:29.416Z,6.38
2023-04-09T04:55:29.753Z,6.35
2023-04-09T04:56:28.937Z,6.36
2023-04-09T04:57:29.252Z,6.38
2023-04-09T04:58:29.547Z,6.36
2023-04-09T04:59:28.826Z,6.33
2023-04-09T05:00:29.081Z,6.30
2023-04-09T05:01:29.823Z,6.30
2023-04-09T05:02:29.792Z,6.30
2023-04-09T05:03:28.983Z,6.30
2023-04-09T05:04:29.234Z,6.28
2023-04-09T05:05:29.530Z,6.27
2023-04-09T05:06:28.781Z,6.27
2023-04-09T05:07:29.194Z,6.21
2023-04-09T05:08:29.361Z,6.20
2023-04-09T05:09:28.628Z,6.20
2023-04-09T05:10:28.949Z,6.19
2023-04-09T05:11:29.241Z,6.17
2023-04-09T05:12:29.553Z,6.19
2023-04-09T05:13:29.728Z,6.17
2023-04-09T05:14:30.047Z,6.20
2023-04-09T05:15:29.380Z,6.21
2023-04-09T05:16:28.613Z,6.21
2023-04-09T05:17:28.977Z,6.17
2023-04-09T05:18:29.348Z,6.20
2023-04-09T05:19:28.467Z,6.24
2023-04-09T05:20:28.777Z,6.28
2023-04-09T05:21:29.099Z,6.30
2023-04-09T05:22:29.382Z,6.35
2023-04-09T05:23:28.667Z,6.35
2023-04-09T05:24:29.003Z,6.35
2023-04-09T05:25:29.307Z,6.32
2023-04-09T05:26:28.528Z,6.28
2023-04-09T05:27:28.845Z,6.28
2023-04-09T05:28:29.148Z,6.28
2023-04-09T05:29:28.454Z,6.33
2023-04-09T05:30:28.754Z,6.33
2023-04-09T05:31:29.040Z,6.36
2023-04-09T05:32:29.444Z,6.35
2023-04-09T05:33:28.655Z,6.35
2023-04-09T05:34:28.954Z,6.35
2023-04-09T05:35:29.294Z,6.39
2023-04-09T05:36:28.546Z,6.39
2023-04-09T05:37:28.859Z,6.36
2023-04-09T05:38:29.201Z,6.35
2023-04-09T05:39:28.420Z,6.36
2023-04-09T05:40:28.754Z,6.36
2023-04-09T05:41:29.071Z,6.39
2023-04-09T05:42:28.303Z,6.36
2023-04-09T05:43:28.622Z,6.35
2023-04-09T05:44:28.952Z,6.39
2023-04-09T05:45:28.139Z,6.42
2023-04-09T05:46:28.517Z,6.42
2023-04-09T05:47:28.813Z,6.39
2023-04-09T05:48:30.103Z,6.43
2023-04-09T05:49:28.379Z,6.45
2023-04-09T05:50:29.023Z,6.48
2023-04-09T05:51:29.000Z,6.48
2023-04-09T05:52:28.255Z,6.50
2023-04-09T05:53:28.578Z,6.50
2023-04-09T05:54:28.919Z,6.51
2023-04-09T05:55:28.154Z,6.54
2023-04-09T05:56:28.538Z,6.55
2023-04-09T05:57:28.732Z,6.55
2023-04-09T05:58:28.988Z,6.57
2023-04-09T05:59:28.328Z,6.60
2023-04-09T06:00:28.617Z,6.63
2023-04-09T06:01:28.927Z,6.64
2023-04-09T06:02:28.302Z,6.69
2023-04-09T06:03:29.613Z,6.71
2023-04-09T06:04:28.848Z,6.72
2023-04-09T06:05:28.076Z,6.75
2023-04-09T06:06:28.413Z,6.76
2023-04-09T06:07:29.057Z,6.78
2023-04-09T06:08:28.014Z,6.82
2023-04-09T06:09:28.312Z,6.81
2023-04-09T06:10:28.650Z,6.82
2023-04-09T06:11:27.924Z,6.82
2023-04-09T06:12:29.131Z,6.86
2023-04-09T06:13:28.617Z,6.90
2023-04-09T06:14:28.759Z,6.90
2023-04-09T06:15:28.057Z,6.94
2023-04-09T06:16:28.323Z,6.96
2023-04-09T06:17:28.623Z,7.00
2023-04-09T06:18:27.898Z,7.00
2023-04-09T06:19:28.269Z,7.01
2023-04-09T06:20:28.511Z,7.01
2023-04-09T06:21:27.750Z,7.05
2023-04-09T06:22:28.028Z,7.08
2023-04-09T06:23:27.778Z,7.11
2023-04-09T06:24:28.070Z,7.16
2023-04-09T06:25:28.373Z,7.16
2023-04-09T06:26:28.593Z,7.19
2023-04-09T06:27:27.819Z,7.23
2023-04-09T06:28:28.126Z,7.24
2023-04-09T06:29:28.674Z,7.26
2023-04-09T06:30:28.073Z,7.29
2023-04-09T06:31:28.449Z,7.33
2023-04-09T06:32:28.606Z,7.34
2023-04-09T06:33:27.838Z,7.39
2023-04-09T06:34:28.065Z,7.44
2023-04-09T06:35:29.340Z,7.50
2023-04-09T06:36:28.567Z,7.45
2023-04-09T06:37:28.023Z,7.55
2023-04-09T06:38:29.174Z,7.62
2023-04-09T06:39:28.413Z,7.71
2023-04-09T06:40:27.736Z,7.77
2023-04-09T06:41:28.060Z,7.85
2023-04-09T06:42:28.444Z,7.92
2023-04-09T06:43:28.584Z,7.99
2023-04-09T06:44:28.816Z,8.03
2023-04-09T06:45:29.138Z,8.10
2023-04-09T06:46:27.439Z,8.14
2023-04-09T06:47:28.652Z,8.22
2023-04-09T06:48:28.028Z,8.25
2023-04-09T06:49:29.296Z,8.28
2023-04-09T06:50:27.593Z,8.32
2023-04-09T06:51:27.840Z,8.36
2023-04-09T06:52:28.100Z,8.47
2023-04-09T06:53:27.498Z,8.42
2023-04-09T06:54:27.691Z,8.43
2023-04-09T06:55:28.911Z,8.43
2023-04-09T06:56:28.212Z,8.45
2023-04-09T06:57:28.421Z,8.47
2023-04-09T06:58:28.723Z,8.46
2023-04-09T06:59:28.061Z,8.45
2023-04-09T07:00:28.315Z,8.46
2023-04-09T07:01:27.643Z,8.47
2023-04-09T07:02:28.217Z,8.47
2023-04-09T07:03:29.411Z,8.49
2023-04-09T07:04:28.435Z,8.47
2023-04-09T07:05:27.698Z,8.47
2023-04-09T07:06:27.935Z,8.47
2023-04-09T07:07:27.248Z,8.49
2023-04-09T07:08:28.463Z,8.50
2023-04-09T07:09:28.720Z,8.50
2023-04-09T07:10:29.022Z,8.50
2023-04-09T07:11:27.510Z,8.50
2023-04-09T07:12:28.486Z,8.52
2023-04-09T07:14:27.028Z,8.57
2023-04-09T07:15:28.234Z,8.61
2023-04-09T07:16:28.551Z,8.64
2023-04-09T07:17:28.755Z,8.68
2023-04-09T07:18:27.001Z,8.71
2023-04-09T07:19:28.199Z,8.76
2023-04-09T07:20:27.517Z,8.76
2023-04-09T07:21:27.785Z,8.76
2023-04-09T07:22:27.042Z,8.76
2023-04-09T07:23:28.365Z,8.76
2023-04-09T07:24:27.669Z,8.76
2023-04-09T07:25:26.904Z,8.76
2023-04-09T07:26:28.071Z,8.76
2023-04-09T07:27:27.429Z,8.78
2023-04-09T07:28:27.679Z,8.83
2023-04-09T07:29:26.862Z,8.88
2023-04-09T07:30:28.140Z,8.93
2023-04-09T07:31:28.461Z,9.00
2023-04-09T07:32:28.913Z,9.04
2023-04-09T07:33:27.870Z,9.08
2023-04-09T07:34:28.107Z,9.08
2023-04-09T07:35:28.362Z,9.15
2023-04-09T07:36:28.682Z,9.19
2023-04-09T07:37:27.941Z,9.22
2023-04-09T07:38:28.235Z,9.22
2023-04-09T07:39:28.404Z,9.27
2023-04-09T07:40:27.646Z,9.31
2023-04-09T07:41:27.030Z,9.37
2023-04-09T07:42:28.310Z,9.38
2023-04-09T07:43:28.796Z,9.38
2023-04-09T07:44:26.707Z,9.38
2023-04-09T07:45:26.980Z,9.40
2023-04-09T07:46:27.289Z,9.38
2023-04-09T07:47:27.577Z,9.42
2023-04-09T07:48:26.799Z,9.45
2023-04-09T07:49:27.052Z,9.53
2023-04-09T07:50:27.271Z,9.53
2023-04-09T07:51:26.467Z,9.56
2023-04-09T07:52:26.716Z,9.58
2023-04-09T07:53:26.938Z,9.62
2023-04-09T07:54:27.211Z,9.62
2023-04-09T07:55:26.475Z,9.63
2023-04-09T07:56:26.706Z,9.63
2023-04-09T07:57:26.958Z,9.65
2023-04-09T07:58:27.251Z,9.63
2023-04-09T07:59:27.408Z,9.65
2023-04-09T08:00:27.701Z,9.65
2023-04-09T08:01:26.974Z,9.71
2023-04-09T08:02:27.460Z,9.73
2023-04-09T08:03:26.651Z,9.77
2023-04-09T08:04:26.767Z,9.80
2023-04-09T08:05:27.982Z,9.86
2023-04-09T08:06:28.213Z,9.91
2023-04-09T08:07:26.424Z,9.92
2023-04-09T08:08:26.717Z,9.96
2023-04-09T08:09:26.961Z,9.99
2023-04-09T08:10:27.278Z,10.01
2023-04-09T08:11:26.643Z,10.04
2023-04-09T08:12:26.690Z,10.06
2023-04-09T08:13:27.872Z,10.10
2023-04-09T08:14:28.119Z,10.14
2023-04-09T08:15:26.385Z,10.17
2023-04-09T08:16:26.733Z,10.22
2023-04-09T08:17:26.919Z,10.26
2023-04-09T08:18:26.100Z,10.29
2023-04-09T08:19:27.298Z,10.32
2023-04-09T08:20:26.600Z,10.35
2023-04-09T08:21:26.852Z,10.39
2023-04-09T08:22:27.117Z,10.42
2023-04-09T08:23:26.253Z,10.44
2023-04-09T08:24:26.492Z,10.44
2023-04-09T08:25:26.734Z,10.49
2023-04-09T08:26:27.040Z,10.54
2023-04-09T08:27:26.132Z,10.57
2023-04-09T08:28:26.590Z,10.60
2023-04-09T08:29:26.593Z,10.63
2023-04-09T08:30:26.858Z,10.68
2023-04-09T08:31:26.140Z,10.73
2023-04-09T08:32:26.335Z,10.76
2023-04-09T08:33:26.542Z,10.78
2023-04-09T08:34:26.769Z,10.81
2023-04-09T08:35:25.925Z,10.81
2023-04-09T08:36:26.257Z,10.84
2023-04-09T08:37:26.361Z,10.86
2023-04-09T08:38:26.587Z,10.90
2023-04-09T08:39:26.892Z,10.88
2023-04-09T08:40:26.026Z,10.90
2023-04-09T08:41:26.221Z,10.87
2023-04-09T08:42:26.508Z,10.84
2023-04-09T08:43:41.934Z,10.78
2023-04-09T08:44:26.880Z,10.81
2023-04-09T08:45:26.214Z,10.86
2023-04-09T08:46:26.467Z,10.81
2023-04-09T08:47:26.585Z,10.75
2023-04-09T08:48:25.842Z,10.76
2023-04-09T08:49:25.988Z,10.81
2023-04-09T08:50:26.178Z,10.88
2023-04-09T08:51:26.456Z,10.95
2023-04-09T08:52:26.599Z,11.01
2023-04-09T08:53:25.779Z,11.06
2023-04-09T08:54:25.986Z,11.11
2023-04-09T08:55:26.228Z,11.23
2023-04-09T08:56:26.428Z,11.33
2023-04-09T08:57:25.676Z,11.41
2023-04-09T08:58:25.811Z,11.49
2023-04-09T08:59:26.053Z,11.62
2023-04-09T09:00:26.243Z,11.74
2023-04-09T09:01:26.549Z,11.82
2023-04-09T09:02:25.752Z,11.96
2023-04-09T09:03:25.964Z,12.05
2023-04-09T09:04:27.153Z,12.11
2023-04-09T09:05:27.326Z,12.05
2023-04-09T09:06:25.505Z,11.94
2023-04-09T09:07:26.675Z,11.90
2023-04-09T09:08:26.008Z,11.79
2023-04-09T09:09:26.143Z,11.75
2023-04-09T09:10:27.350Z,11.69
2023-04-09T09:11:25.562Z,11.66
2023-04-09T09:12:26.067Z,11.67
2023-04-09T09:13:26.119Z,11.75
2023-04-09T09:14:26.307Z,11.82
2023-04-09T09:15:26.405Z,11.90
2023-04-09T09:16:25.685Z,11.97
2023-04-09T09:17:25.955Z,11.97
2023-04-09T09:18:26.140Z,11.97
2023-04-09T09:19:25.346Z,12.08
2023-04-09T09:20:26.530Z,12.13
2023-04-09T09:21:26.748Z,12.12
2023-04-09T09:22:26.053Z,12.12
2023-04-09T09:23:25.208Z,12.11
2023-04-09T09:24:25.482Z,12.03
2023-04-09T09:25:25.897Z,12.00
2023-04-09T09:26:26.812Z,12.03
2023-04-09T09:27:26.121Z,12.07
2023-04-09T09:28:25.269Z,12.15
2023-04-09T09:29:25.503Z,12.25
2023-04-09T09:30:25.763Z,12.30
2023-04-09T09:31:26.070Z,12.34
2023-04-09T09:32:26.268Z,12.38
2023-04-09T09:33:25.279Z,12.46
2023-04-09T09:34:25.553Z,12.55
2023-04-09T09:35:25.750Z,12.55
2023-04-09T09:36:26.001Z,12.67
2023-04-09T09:37:25.136Z,12.69
2023-04-09T09:38:25.321Z,12.69
2023-04-09T09:39:25.543Z,12.62
2023-04-09T09:40:25.815Z,12.55
2023-04-09T09:41:27.006Z,12.48
2023-04-09T09:42:25.223Z,12.44
2023-04-09T09:43:25.379Z,12.43
2023-04-09T09:44:25.591Z,12.34
2023-04-09T09:45:25.829Z,12.34
2023-04-09T09:46:25.045Z,12.33
2023-04-09T09:47:25.348Z,12.40
2023-04-09T09:48:27.889Z,12.41
2023-04-09T09:49:25.651Z,12.48
2023-04-09T09:50:25.815Z,12.51
2023-04-09T09:51:24.981Z,12.49
2023-04-09T09:52:25.216Z,12.44
2023-04-09T09:53:25.375Z,12.37
2023-04-09T09:54:25.799Z,12.40
2023-04-09T09:55:25.822Z,12.34
2023-04-09T09:56:25.009Z,12.33
2023-04-09T09:57:25.212Z,12.34
2023-04-09T09:58:26.413Z,12.33
2023-04-09T09:59:25.635Z,12.33
2023-04-09T10:00:25.022Z,12.30
2023-04-09T10:01:25.115Z,12.21
2023-04-09T10:02:25.308Z,12.12
2023-04-09T10:03:25.454Z,12.05
2023-04-09T10:04:25.704Z,12.04
2023-04-09T10:05:24.860Z,12.03
2023-04-09T10:06:25.158Z,11.98
2023-04-09T10:07:25.279Z,12.01
2023-04-09T10:08:25.478Z,12.04
2023-04-09T10:09:24.649Z,12.08
2023-04-09T10:10:24.831Z,12.12
2023-04-09T10:11:25.062Z,12.21
2023-04-09T10:12:25.377Z,12.33
2023-04-09T10:13:26.420Z,12.48
2023-04-09T10:14:25.678Z,12.71
2023-04-09T10:15:24.844Z,12.87
2023-04-09T10:16:25.060Z,12.99
2023-04-09T10:17:25.153Z,13.06
2023-04-09T10:18:25.403Z,13.13
2023-04-09T10:19:25.498Z,13.17
2023-04-09T10:20:24.691Z,13.22
2023-04-09T10:21:24.792Z,13.24
2023-04-09T10:22:25.937Z,13.17
2023-04-09T10:23:25.184Z,13.10
2023-04-09T10:24:25.413Z,13.03
2023-04-09T10:25:24.485Z,12.88
2023-04-09T10:26:24.730Z,12.73
2023-04-09T10:27:24.892Z,12.63
2023-04-09T10:28:25.095Z,12.59
2023-04-09T10:29:26.119Z,12.52
2023-04-09T10:30:24.535Z,12.43
2023-04-09T10:31:24.690Z,12.43
2023-04-09T10:32:24.976Z,12.43
2023-04-09T10:33:25.104Z,12.46
2023-04-09T10:34:25.289Z,12.56
2023-04-09T10:35:24.509Z,12.59
2023-04-09T10:36:24.945Z,12.67
2023-04-09T10:37:24.919Z,12.67
2023-04-09T10:38:25.152Z,12.73
2023-04-09T10:39:24.340Z,12.85
2023-04-09T10:40:24.723Z,12.95
2023-04-09T10:41:24.793Z,12.96
2023-04-09T10:42:25.025Z,12.94
2023-04-09T10:43:24.199Z,12.91
2023-04-09T10:44:24.432Z,12.92
2023-04-09T10:45:24.593Z,12.92
2023-04-09T10:46:24.858Z,12.89
2023-04-09T10:47:25.083Z,12.80
2023-04-09T10:48:24.208Z,12.77
2023-04-09T10:49:24.501Z,12.74
2023-04-09T10:50:24.632Z,12.69
2023-04-09T10:51:24.869Z,12.69
2023-04-09T10:52:25.067Z,12.70
2023-04-09T10:53:24.310Z,12.70
2023-04-09T10:54:24.467Z,12.69
2023-04-09T10:55:24.725Z,12.66
2023-04-09T10:56:24.909Z,12.59
2023-04-09T10:57:24.122Z,12.55
2023-04-09T10:58:24.361Z,12.56
2023-04-09T10:59:24.496Z,12.58
2023-04-09T11:00:24.827Z,12.66
2023-04-09T11:01:24.918Z,12.67
2023-04-09T11:02:24.194Z,12.67
2023-04-09T11:03:24.574Z,12.70
2023-04-09T11:04:24.604Z,12.70
2023-04-09T11:05:24.882Z,12.70
2023-04-09T11:06:24.926Z,12.79
2023-04-09T11:07:26.144Z,12.87
2023-04-09T11:08:25.327Z,12.94
2023-04-09T11:09:25.522Z,12.99
2023-04-09T11:10:24.861Z,13.04
2023-04-09T11:11:23.966Z,13.09
2023-04-09T11:12:24.177Z,13.13
2023-04-09T11:13:24.382Z,13.14
2023-04-09T11:14:24.574Z,13.16
2023-04-09T11:15:23.731Z,13.17
2023-04-09T11:16:24.641Z,13.19
2023-04-09T11:17:24.186Z,13.16
2023-04-09T11:18:24.372Z,13.17
2023-04-09T11:19:24.615Z,13.14
2023-04-09T11:20:23.775Z,13.12
2023-04-09T11:21:24.006Z,13.12
2023-04-09T11:22:24.319Z,13.13
2023-04-09T11:23:24.469Z,13.10
2023-04-09T11:24:23.632Z,13.09
2023-04-09T11:25:23.903Z,13.09
2023-04-09T11:26:24.050Z,13.09
2023-04-09T11:27:24.308Z,13.07
2023-04-09T11:28:24.518Z,13.13
2023-04-09T11:29:23.642Z,13.13
2023-04-09T11:30:24.915Z,13.12
2023-04-09T11:31:24.127Z,13.10
2023-04-09T11:32:24.333Z,13.10
2023-04-09T11:33:24.541Z,13.13
2023-04-09T11:34:23.659Z,13.16
2023-04-09T11:35:23.903Z,13.17
2023-04-09T11:36:24.110Z,13.21
2023-04-09T11:37:24.287Z,13.25
2023-04-09T11:38:23.460Z,13.29
2023-04-09T11:39:23.691Z,13.27
2023-04-09T11:40:23.880Z,13.29
2023-04-09T11:41:25.067Z,13.32
2023-04-09T11:42:25.252Z,13.36
2023-04-09T11:43:23.467Z,13.38
2023-04-09T11:44:23.757Z,13.44
2023-04-09T11:45:23.962Z,13.44
2023-04-09T11:46:24.197Z,13.48
2023-04-09T11:47:23.428Z,13.54
2023-04-09T11:48:23.567Z,13.54
2023-04-09T11:49:23.808Z,13.54
2023-04-09T11:50:24.180Z,13.54
2023-04-09T11:51:24.205Z,13.50
2023-04-09T11:52:23.381Z,13.48
2023-04-09T11:53:23.599Z,13.46
2023-04-09T11:54:23.817Z,13.44
2023-04-09T11:55:24.028Z,13.47
2023-04-09T11:56:23.240Z,13.50
2023-04-09T11:57:23.425Z,13.46
2023-04-09T11:58:23.724Z,13.44
2023-04-09T11:59:23.828Z,13.41
2023-04-09T12:00:24.042Z,13.47
2023-04-09T12:01:23.203Z,13.51
2023-04-09T12:02:23.610Z,13.55
2023-04-09T12:03:23.860Z,13.55
2023-04-09T12:04:25.009Z,13.57
2023-04-09T12:05:24.967Z,13.59
2023-04-09T12:06:24.180Z,13.62
2023-04-09T12:07:24.319Z,13.63
2023-04-09T12:08:23.869Z,13.66
2023-04-09T12:09:24.791Z,13.66
2023-04-09T12:10:24.956Z,13.66
2023-04-09T12:11:24.145Z,13.73
2023-04-09T12:12:23.347Z,13.75
2023-04-09T12:13:23.557Z,13.81
2023-04-09T12:14:23.788Z,13.81
2023-04-09T12:15:23.987Z,13.84
2023-04-09T12:16:23.182Z,13.86
2023-04-09T12:17:23.380Z,13.80
2023-04-09T12:18:23.569Z,13.79
2023-04-09T12:19:24.765Z,13.86
2023-04-09T12:20:23.260Z,13.91
2023-04-09T12:21:23.196Z,13.96
2023-04-09T12:22:23.357Z,14.05
2023-04-09T12:23:23.592Z,14.09
2023-04-09T12:24:23.846Z,14.08
2023-04-09T12:25:22.951Z,14.05
2023-04-09T12:26:23.208Z,14.05
2023-04-09T12:27:23.401Z,14.02
2023-04-09T12:28:23.556Z,13.99
2023-04-09T12:29:23.755Z,14.12
2023-04-09T12:30:22.952Z,14.27
2023-04-09T12:31:23.138Z,14.31
2023-04-09T12:32:23.440Z,14.41
2023-04-09T12:33:23.509Z,14.49
2023-04-09T12:34:23.745Z,14.54
2023-04-09T12:35:23.014Z,14.61
2023-04-09T12:36:23.143Z,14.69
2023-04-09T12:37:23.395Z,14.61
2023-04-09T12:38:23.684Z,14.56
2023-04-09T12:39:23.726Z,14.59
2023-04-09T12:40:23.970Z,14.57
2023-04-09T12:41:23.225Z,14.61
2023-04-09T12:42:24.415Z,14.66
2023-04-09T12:43:23.576Z,14.71
2023-04-09T12:44:22.868Z,14.78
2023-04-09T12:45:23.070Z,14.78
2023-04-09T12:46:23.321Z,14.79
2023-04-09T12:47:23.637Z,14.80
2023-04-09T12:48:22.697Z,14.74
2023-04-09T12:49:22.865Z,14.66
2023-04-09T12:50:23.094Z,14.59
2023-04-09T12:51:24.279Z,14.54
2023-04-09T12:52:22.480Z,14.46
2023-04-09T12:53:22.707Z,14.42
2023-04-09T12:54:22.916Z,14.35
2023-04-09T12:55:23.136Z,14.34
2023-04-09T12:56:23.368Z,14.30
2023-04-09T12:57:22.524Z,14.29
2023-04-09T12:58:23.729Z,14.30
2023-04-09T12:59:23.948Z,14.23
2023-04-09T13:00:23.224Z,14.20
2023-04-09T13:01:22.364Z,14.09
2023-04-09T13:02:22.624Z,14.04
2023-04-09T13:03:22.850Z,14.04
2023-04-09T13:04:22.965Z,13.99
2023-04-09T13:05:23.038Z,14.01
2023-04-09T13:06:23.317Z,14.04
2023-04-09T13:07:22.402Z,14.02
2023-04-09T13:08:22.604Z,14.06
2023-04-09T13:09:23.758Z,14.06